Decoded Metar for YEML ( in ) (IATA:) | Meteo·Mobile Aviation Weather
aviador You're here:

YEML Decoded Metar

in
Report Time2018-09-21 17:00:00
UTC Time2018-09-21 17:17:43
Flight Rules vfr VFR
Wind110° at 06 kt
W.Decomp.*RWY 15: 4.6 kt HW 3.9 kt LCW
RWY 06: 3.9 kt HW 4.6 kt RCW
W.Rank110° ranks 9
Current wind is below 110° avg. (6.9)
Visibility9999 m
Phenomena:N/A
Clouds:N/A
Expected CloudBase > 1,600 ft AGL from Temp-Dew spread
CeilingNone
Temp15°C
Dew Point11°C (77% RH)
AAT13.2°C
QNH1023 hPa
Raw Report
METAR YEML 211700Z AUTO 11006KT 9999 // NCD 15/11 Q1023=

Extra information for YEML:More info

Social comments